sensor_id;sensor_type;location;lat;lon;timestamp;P1;durP1;ratioP1;P2;durP2;ratioP2
47882;SDS011;37739;50.350;7.578;2023-10-19T00:00:33;7.10;;;6.50;;
47882;SDS011;37739;50.350;7.578;2023-10-19T00:03:01;6.77;;;6.17;;
47882;SDS011;37739;50.350;7.578;2023-10-19T00:05:31;5.93;;;5.53;;
47882;SDS011;37739;50.350;7.578;2023-10-19T00:08:03;7.13;;;6.40;;
47882;SDS011;37739;50.350;7.578;2023-10-19T00:10:31;7.10;;;6.50;;
47882;SDS011;37739;50.350;7.578;2023-10-19T00:13:05;6.90;;;6.30;;
47882;SDS011;37739;50.350;7.578;2023-10-19T00:15:37;6.40;;;5.90;;
47882;SDS011;37739;50.350;7.578;2023-10-19T00:18:13;6.70;;;6.10;;
47882;SDS011;37739;50.350;7.578;2023-10-19T00:20:44;7.47;;;5.70;;
47882;SDS011;37739;50.350;7.578;2023-10-19T00:23:12;6.30;;;5.80;;
47882;SDS011;37739;50.350;7.578;2023-10-19T00:25:49;6.33;;;5.80;;
47882;SDS011;37739;50.350;7.578;2023-10-19T00:28:16;6.47;;;5.87;;
47882;SDS011;37739;50.350;7.578;2023-10-19T00:30:45;6.80;;;6.20;;
47882;SDS011;37739;50.350;7.578;2023-10-19T00:33:15;7.00;;;6.40;;
47882;SDS011;37739;50.350;7.578;2023-10-19T00:35:43;6.30;;;5.70;;
47882;SDS011;37739;50.350;7.578;2023-10-19T00:38:12;6.40;;;5.80;;
47882;SDS011;37739;50.350;7.578;2023-10-19T00:40:53;6.30;;;5.70;;
47882;SDS011;37739;50.350;7.578;2023-10-19T00:43:27;6.30;;;5.70;;
47882;SDS011;37739;50.350;7.578;2023-10-19T00:46:00;6.07;;;5.57;;
47882;SDS011;37739;50.350;7.578;2023-10-19T00:48:40;5.80;;;5.30;;
47882;SDS011;37739;50.350;7.578;2023-10-19T00:51:12;6.00;;;5.50;;
47882;SDS011;37739;50.350;7.578;2023-10-19T00:54:07;6.43;;;5.93;;
47882;SDS011;37739;50.350;7.578;2023-10-19T00:56:38;7.57;;;6.97;;
47882;SDS011;37739;50.350;7.578;2023-10-19T00:59:10;6.40;;;5.90;;
47882;SDS011;37739;50.350;7.578;2023-10-19T01:01:40;5.60;;;5.10;;
47882;SDS011;37739;50.350;7.578;2023-10-19T01:04:10;5.77;;;5.27;;
47882;SDS011;37739;50.350;7.578;2023-10-19T01:06:44;5.20;;;4.80;;
47882;SDS011;37739;50.350;7.578;2023-10-19T01:09:29;5.50;;;5.10;;
47882;SDS011;37739;50.350;7.578;2023-10-19T01:11:59;5.90;;;5.40;;
47882;SDS011;37739;50.350;7.578;2023-10-19T01:14:27;5.00;;;4.57;;
47882;SDS011;37739;50.350;7.578;2023-10-19T01:16:53;5.50;;;5.00;;
47882;SDS011;37739;50.350;7.578;2023-10-19T01:19:24;5.47;;;4.97;;
47882;SDS011;37739;50.350;7.578;2023-10-19T01:21:54;5.90;;;5.40;;
47882;SDS011;37739;50.350;7.578;2023-10-19T01:24:28;5.33;;;4.90;;
47882;SDS011;37739;50.350;7.578;2023-10-19T01:27:19;6.03;;;5.53;;
47882;SDS011;37739;50.350;7.578;2023-10-19T01:29:47;6.40;;;5.90;;
47882;SDS011;37739;50.350;7.578;2023-10-19T01:32:17;6.00;;;5.40;;
47882;SDS011;37739;50.350;7.578;2023-10-19T01:34:44;6.40;;;5.90;;
47882;SDS011;37739;50.350;7.578;2023-10-19T01:37:10;5.73;;;5.23;;
47882;SDS011;37739;50.350;7.578;2023-10-19T01:39:37;6.37;;;5.87;;
47882;SDS011;37739;50.350;7.578;2023-10-19T01:42:04;6.43;;;5.93;;
47882;SDS011;37739;50.350;7.578;2023-10-19T01:44:32;6.10;;;5.50;;
47882;SDS011;37739;50.350;7.578;2023-10-19T01:47:01;6.80;;;6.20;;
47882;SDS011;37739;50.350;7.578;2023-10-19T01:49:30;6.10;;;5.60;;
47882;SDS011;37739;50.350;7.578;2023-10-19T01:52:00;5.50;;;5.00;;
47882;SDS011;37739;50.350;7.578;2023-10-19T01:54:29;6.60;;;5.20;;
47882;SDS011;37739;50.350;7.578;2023-10-19T01:56:57;6.13;;;5.63;;
47882;SDS011;37739;50.350;7.578;2023-10-19T01:59:22;5.63;;;5.13;;
47882;SDS011;37739;50.350;7.578;2023-10-19T02:01:54;6.10;;;5.50;;
47882;SDS011;37739;50.350;7.578;2023-10-19T02:04:20;6.40;;;5.90;;
47882;SDS011;37739;50.350;7.578;2023-10-19T02:06:49;6.57;;;5.60;;
47882;SDS011;37739;50.350;7.578;2023-10-19T02:09:20;6.43;;;5.87;;
47882;SDS011;37739;50.350;7.578;2023-10-19T02:11:51;6.40;;;5.90;;
47882;SDS011;37739;50.350;7.578;2023-10-19T02:14:20;6.90;;;6.30;;
47882;SDS011;37739;50.350;7.578;2023-10-19T02:16:55;6.93;;;6.30;;
47882;SDS011;37739;50.350;7.578;2023-10-19T02:19:24;6.00;;;5.50;;
47882;SDS011;37739;50.350;7.578;2023-10-19T02:22:01;7.10;;;6.50;;
47882;SDS011;37739;50.350;7.578;2023-10-19T02:24:33;7.00;;;6.23;;
47882;SDS011;37739;50.350;7.578;2023-10-19T02:26:58;6.60;;;5.90;;
47882;SDS011;37739;50.350;7.578;2023-10-19T02:29:26;7.27;;;6.67;;
47882;SDS011;37739;50.350;7.578;2023-10-19T02:31:56;6.97;;;6.27;;
47882;SDS011;37739;50.350;7.578;2023-10-19T02:34:25;6.60;;;6.10;;
47882;SDS011;37739;50.350;7.578;2023-10-19T02:36:52;7.10;;;6.40;;
47882;SDS011;37739;50.350;7.578;2023-10-19T02:39:18;7.10;;;6.40;;
47882;SDS011;37739;50.350;7.578;2023-10-19T02:41:44;7.23;;;6.57;;
47882;SDS011;37739;50.350;7.578;2023-10-19T02:44:19;6.73;;;6.20;;
47882;SDS011;37739;50.350;7.578;2023-10-19T02:46:54;7.80;;;7.10;;
47882;SDS011;37739;50.350;7.578;2023-10-19T02:49:34;8.23;;;7.47;;
47882;SDS011;37739;50.350;7.578;2023-10-19T02:52:04;9.97;;;7.67;;
47882;SDS011;37739;50.350;7.578;2023-10-19T02:54:32;7.27;;;6.67;;
47882;SDS011;37739;50.350;7.578;2023-10-19T02:57:03;6.70;;;6.10;;
47882;SDS011;37739;50.350;7.578;2023-10-19T02:59:32;6.53;;;5.97;;
47882;SDS011;37739;50.350;7.578;2023-10-19T03:01:58;7.97;;;6.63;;
47882;SDS011;37739;50.350;7.578;2023-10-19T03:04:38;6.43;;;5.83;;
47882;SDS011;37739;50.350;7.578;2023-10-19T03:07:06;7.30;;;6.60;;
47882;SDS011;37739;50.350;7.578;2023-10-19T03:09:32;7.33;;;6.63;;
47882;SDS011;37739;50.350;7.578;2023-10-19T03:12:01;6.90;;;6.30;;
47882;SDS011;37739;50.350;7.578;2023-10-19T03:14:35;7.33;;;6.63;;
47882;SDS011;37739;50.350;7.578;2023-10-19T03:17:04;6.87;;;6.27;;
47882;SDS011;37739;50.350;7.578;2023-10-19T03:19:33;7.17;;;6.47;;
47882;SDS011;37739;50.350;7.578;2023-10-19T03:22:00;8.23;;;7.53;;
47882;SDS011;37739;50.350;7.578;2023-10-19T03:24:31;7.67;;;6.97;;
47882;SDS011;37739;50.350;7.578;2023-10-19T03:27:11;7.60;;;6.63;;
47882;SDS011;37739;50.350;7.578;2023-10-19T03:29:42;9.03;;;8.20;;
47882;SDS011;37739;50.350;7.578;2023-10-19T03:32:13;8.70;;;7.90;;
47882;SDS011;37739;50.350;7.578;2023-10-19T03:34:39;8.33;;;7.63;;
47882;SDS011;37739;50.350;7.578;2023-10-19T03:37:08;9.73;;;7.60;;
47882;SDS011;37739;50.350;7.578;2023-10-19T03:39:39;7.40;;;6.80;;
47882;SDS011;37739;50.350;7.578;2023-10-19T03:42:05;7.97;;;7.27;;
47882;SDS011;37739;50.350;7.578;2023-10-19T03:44:31;8.40;;;7.60;;
47882;SDS011;37739;50.350;7.578;2023-10-19T03:47:13;7.80;;;7.10;;
47882;SDS011;37739;50.350;7.578;2023-10-19T03:49:43;9.00;;;8.20;;
47882;SDS011;37739;50.350;7.578;2023-10-19T03:52:08;8.97;;;8.13;;
47882;SDS011;37739;50.350;7.578;2023-10-19T03:54:34;7.97;;;7.27;;
47882;SDS011;37739;50.350;7.578;2023-10-19T03:57:05;7.77;;;6.97;;
47882;SDS011;37739;50.350;7.578;2023-10-19T03:59:37;9.33;;;8.23;;
47882;SDS011;37739;50.350;7.578;2023-10-19T04:02:06;8.60;;;7.70;;
47882;SDS011;37739;50.350;7.578;2023-10-19T04:04:38;6.83;;;6.10;;
47882;SDS011;37739;50.350;7.578;2023-10-19T04:07:08;9.30;;;8.50;;
47882;SDS011;37739;50.350;7.578;2023-10-19T04:09:48;8.50;;;7.70;;
47882;SDS011;37739;50.350;7.578;2023-10-19T04:12:22;8.83;;;8.00;;
47882;SDS011;37739;50.350;7.578;2023-10-19T04:14:53;9.37;;;8.47;;
47882;SDS011;37739;50.350;7.578;2023-10-19T04:17:21;7.60;;;6.90;;
47882;SDS011;37739;50.350;7.578;2023-10-19T04:19:48;8.80;;;8.00;;
47882;SDS011;37739;50.350;7.578;2023-10-19T04:22:16;8.50;;;7.70;;
47882;SDS011;37739;50.350;7.578;2023-10-19T04:24:50;8.43;;;7.63;;
47882;SDS011;37739;50.350;7.578;2023-10-19T04:27:21;8.83;;;8.00;;
47882;SDS011;37739;50.350;7.578;2023-10-19T04:29:48;10.60;;;9.60;;
47882;SDS011;37739;50.350;7.578;2023-10-19T04:32:16;8.47;;;7.60;;
47882;SDS011;37739;50.350;7.578;2023-10-19T04:34:50;9.00;;;8.20;;
47882;SDS011;37739;50.350;7.578;2023-10-19T04:37:16;9.63;;;8.83;;
47882;SDS011;37739;50.350;7.578;2023-10-19T04:39:44;10.87;;;9.87;;
47882;SDS011;37739;50.350;7.578;2023-10-19T04:42:10;11.60;;;8.80;;
47882;SDS011;37739;50.350;7.578;2023-10-19T04:44:37;10.20;;;9.30;;
47882;SDS011;37739;50.350;7.578;2023-10-19T04:47:05;9.27;;;8.30;;
47882;SDS011;37739;50.350;7.578;2023-10-19T04:49:30;9.90;;;8.90;;
47882;SDS011;37739;50.350;7.578;2023-10-19T04:51:56;10.77;;;9.67;;
47882;SDS011;37739;50.350;7.578;2023-10-19T04:54:21;10.47;;;9.57;;
47882;SDS011;37739;50.350;7.578;2023-10-19T04:56:46;10.97;;;9.87;;
47882;SDS011;37739;50.350;7.578;2023-10-19T04:59:15;8.47;;;7.77;;
47882;SDS011;37739;50.350;7.578;2023-10-19T05:01:40;11.07;;;9.97;;
47882;SDS011;37739;50.350;7.578;2023-10-19T05:04:06;8.80;;;8.00;;
47882;SDS011;37739;50.350;7.578;2023-10-19T05:06:31;11.80;;;10.63;;
47882;SDS011;37739;50.350;7.578;2023-10-19T05:08:59;10.17;;;9.27;;
47882;SDS011;37739;50.350;7.578;2023-10-19T05:11:24;10.40;;;9.30;;
47882;SDS011;37739;50.350;7.578;2023-10-19T05:13:49;9.83;;;8.93;;
47882;SDS011;37739;50.350;7.578;2023-10-19T05:16:17;8.73;;;7.50;;
47882;SDS011;37739;50.350;7.578;2023-10-19T05:18:42;9.97;;;9.03;;
47882;SDS011;37739;50.350;7.578;2023-10-19T05:21:08;9.77;;;8.87;;
47882;SDS011;37739;50.350;7.578;2023-10-19T05:23:37;10.93;;;9.93;;
47882;SDS011;37739;50.350;7.578;2023-10-19T05:26:07;10.90;;;9.80;;
47882;SDS011;37739;50.350;7.578;2023-10-19T05:28:32;10.37;;;9.23;;
47882;SDS011;37739;50.350;7.578;2023-10-19T05:31:00;10.43;;;9.43;;
47882;SDS011;37739;50.350;7.578;2023-10-19T05:33:29;11.30;;;9.67;;
47882;SDS011;37739;50.350;7.578;2023-10-19T05:35:54;12.80;;;11.60;;
47882;SDS011;37739;50.350;7.578;2023-10-19T05:38:22;14.17;;;11.97;;
47882;SDS011;37739;50.350;7.578;2023-10-19T05:40:47;12.50;;;11.30;;
47882;SDS011;37739;50.350;7.578;2023-10-19T05:43:14;11.60;;;10.40;;
47882;SDS011;37739;50.350;7.578;2023-10-19T05:45:40;13.10;;;11.80;;
47882;SDS011;37739;50.350;7.578;2023-10-19T05:48:06;11.90;;;10.80;;
47882;SDS011;37739;50.350;7.578;2023-10-19T05:50:35;11.17;;;10.07;;
47882;SDS011;37739;50.350;7.578;2023-10-19T05:53:04;10.50;;;9.50;;
47882;SDS011;37739;50.350;7.578;2023-10-19T05:55:31;12.67;;;10.23;;
47882;SDS011;37739;50.350;7.578;2023-10-19T05:57:57;11.87;;;10.77;;
47882;SDS011;37739;50.350;7.578;2023-10-19T06:00:25;10.50;;;9.50;;
47882;SDS011;37739;50.350;7.578;2023-10-19T06:02:52;12.10;;;10.87;;
47882;SDS011;37739;50.350;7.578;2023-10-19T06:05:18;10.90;;;9.90;;
47882;SDS011;37739;50.350;7.578;2023-10-19T06:07:48;10.10;;;9.20;;
47882;SDS011;37739;50.350;7.578;2023-10-19T06:10:15;10.63;;;9.63;;
47882;SDS011;37739;50.350;7.578;2023-10-19T06:12:43;10.20;;;9.20;;
47882;SDS011;37739;50.350;7.578;2023-10-19T06:15:10;11.40;;;10.40;;
47882;SDS011;37739;50.350;7.578;2023-10-19T06:17:39;8.73;;;7.93;;
47882;SDS011;37739;50.350;7.578;2023-10-19T06:20:09;9.93;;;8.90;;
47882;SDS011;37739;50.350;7.578;2023-10-19T06:22:48;9.20;;;7.60;;
47882;SDS011;37739;50.350;7.578;2023-10-19T06:25:20;9.67;;;8.77;;
47882;SDS011;37739;50.350;7.578;2023-10-19T06:27:51;10.23;;;9.10;;
47882;SDS011;37739;50.350;7.578;2023-10-19T06:30:18;8.87;;;8.07;;
47882;SDS011;37739;50.350;7.578;2023-10-19T06:32:49;9.37;;;8.57;;
47882;SDS011;37739;50.350;7.578;2023-10-19T06:35:16;9.63;;;8.73;;
47882;SDS011;37739;50.350;7.578;2023-10-19T06:37:46;8.60;;;7.80;;
47882;SDS011;37739;50.350;7.578;2023-10-19T06:40:11;9.67;;;8.77;;
47882;SDS011;37739;50.350;7.578;2023-10-19T06:42:46;9.77;;;8.87;;
47882;SDS011;37739;50.350;7.578;2023-10-19T06:45:18;9.50;;;8.60;;
47882;SDS011;37739;50.350;7.578;2023-10-19T06:47:47;8.57;;;7.77;;
47882;SDS011;37739;50.350;7.578;2023-10-19T06:50:15;8.27;;;7.50;;
47882;SDS011;37739;50.350;7.578;2023-10-19T06:52:42;8.37;;;7.67;;
47882;SDS011;37739;50.350;7.578;2023-10-19T06:55:12;6.80;;;6.17;;
47882;SDS011;37739;50.350;7.578;2023-10-19T06:57:50;8.27;;;7.00;;
47882;SDS011;37739;50.350;7.578;2023-10-19T07:00:18;8.57;;;7.80;;
47882;SDS011;37739;50.350;7.578;2023-10-19T07:02:50;7.87;;;6.43;;
47882;SDS011;37739;50.350;7.578;2023-10-19T07:05:18;6.97;;;6.27;;
47882;SDS011;37739;50.350;7.578;2023-10-19T07:07:49;7.43;;;6.73;;
47882;SDS011;37739;50.350;7.578;2023-10-19T07:10:16;8.90;;;6.40;;
47882;SDS011;37739;50.350;7.578;2023-10-19T07:12:46;7.40;;;6.40;;
47882;SDS011;37739;50.350;7.578;2023-10-19T07:15:13;6.00;;;5.23;;
47882;SDS011;37739;50.350;7.578;2023-10-19T07:17:47;6.73;;;6.00;;
47882;SDS011;37739;50.350;7.578;2023-10-19T07:20:14;6.63;;;5.80;;
47882;SDS011;37739;50.350;7.578;2023-10-19T07:22:50;8.13;;;6.40;;
47882;SDS011;37739;50.350;7.578;2023-10-19T07:25:31;8.87;;;6.97;;
47882;SDS011;37739;50.350;7.578;2023-10-19T07:28:10;7.37;;;6.60;;
47882;SDS011;37739;50.350;7.578;2023-10-19T07:30:43;8.13;;;7.03;;
47882;SDS011;37739;50.350;7.578;2023-10-19T07:33:09;7.37;;;6.37;;
47882;SDS011;37739;50.350;7.578;2023-10-19T07:35:42;7.10;;;6.00;;
47882;SDS011;37739;50.350;7.578;2023-10-19T07:38:09;7.40;;;6.70;;
47882;SDS011;37739;50.350;7.578;2023-10-19T07:40:35;6.70;;;6.03;;
47882;SDS011;37739;50.350;7.578;2023-10-19T07:43:01;6.97;;;6.27;;
47882;SDS011;37739;50.350;7.578;2023-10-19T07:45:35;7.33;;;6.53;;
47882;SDS011;37739;50.350;7.578;2023-10-19T07:48:01;8.83;;;7.87;;
47882;SDS011;37739;50.350;7.578;2023-10-19T07:50:31;9.60;;;8.70;;
47882;SDS011;37739;50.350;7.578;2023-10-19T07:53:00;8.93;;;8.13;;
47882;SDS011;37739;50.350;7.578;2023-10-19T07:55:28;8.30;;;7.50;;
47882;SDS011;37739;50.350;7.578;2023-10-19T07:57:54;8.70;;;7.90;;
47882;SDS011;37739;50.350;7.578;2023-10-19T08:00:21;7.93;;;7.00;;
47882;SDS011;37739;50.350;7.578;2023-10-19T08:02:48;7.27;;;6.57;;
47882;SDS011;37739;50.350;7.578;2023-10-19T08:05:16;7.90;;;7.20;;
47882;SDS011;37739;50.350;7.578;2023-10-19T08:07:48;9.93;;;7.67;;
47882;SDS011;37739;50.350;7.578;2023-10-19T08:10:14;8.80;;;7.90;;
47882;SDS011;37739;50.350;7.578;2023-10-19T08:12:42;9.77;;;8.87;;
47882;SDS011;37739;50.350;7.578;2023-10-19T08:15:12;8.70;;;7.87;;
47882;SDS011;37739;50.350;7.578;2023-10-19T08:17:41;7.90;;;7.20;;
47882;SDS011;37739;50.350;7.578;2023-10-19T08:20:11;7.80;;;6.70;;
47882;SDS011;37739;50.350;7.578;2023-10-19T08:22:56;6.90;;;6.20;;
47882;SDS011;37739;50.350;7.578;2023-10-19T08:25:24;6.83;;;6.23;;
47882;SDS011;37739;50.350;7.578;2023-10-19T08:27:52;6.60;;;6.00;;
47882;SDS011;37739;50.350;7.578;2023-10-19T08:30:21;6.60;;;6.00;;
47882;SDS011;37739;50.350;7.578;2023-10-19T08:32:47;6.93;;;5.87;;
47882;SDS011;37739;50.350;7.578;2023-10-19T08:35:16;8.37;;;7.47;;
47882;SDS011;37739;50.350;7.578;2023-10-19T08:37:49;7.73;;;6.47;;
47882;SDS011;37739;50.350;7.578;2023-10-19T08:40:17;6.93;;;6.33;;
47882;SDS011;37739;50.350;7.578;2023-10-19T08:42:46;7.83;;;6.40;;
47882;SDS011;37739;50.350;7.578;2023-10-19T08:45:15;6.73;;;6.13;;
47882;SDS011;37739;50.350;7.578;2023-10-19T08:48:02;6.17;;;5.67;;
47882;SDS011;37739;50.350;7.578;2023-10-19T08:50:28;6.40;;;5.80;;
47882;SDS011;37739;50.350;7.578;2023-10-19T08:53:00;7.00;;;6.17;;
47882;SDS011;37739;50.350;7.578;2023-10-19T08:55:31;6.50;;;5.90;;
47882;SDS011;37739;50.350;7.578;2023-10-19T08:57:59;7.60;;;6.20;;
47882;SDS011;37739;50.350;7.578;2023-10-19T09:00:25;6.17;;;5.57;;
47882;SDS011;37739;50.350;7.578;2023-10-19T09:02:54;7.10;;;6.27;;
47882;SDS011;37739;50.350;7.578;2023-10-19T09:05:21;6.63;;;5.70;;
47882;SDS011;37739;50.350;7.578;2023-10-19T09:07:48;6.73;;;5.93;;
47882;SDS011;37739;50.350;7.578;2023-10-19T09:10:23;6.50;;;5.80;;
47882;SDS011;37739;50.350;7.578;2023-10-19T09:13:06;5.83;;;5.30;;
47882;SDS011;37739;50.350;7.578;2023-10-19T09:15:36;5.23;;;4.70;;
47882;SDS011;37739;50.350;7.578;2023-10-19T09:18:21;6.13;;;5.53;;
47882;SDS011;37739;50.350;7.578;2023-10-19T09:20:49;6.73;;;5.93;;
47882;SDS011;37739;50.350;7.578;2023-10-19T09:23:22;4.70;;;4.20;;
47882;SDS011;37739;50.350;7.578;2023-10-19T09:25:52;5.90;;;5.30;;
47882;SDS011;37739;50.350;7.578;2023-10-19T09:28:18;4.60;;;4.20;;
47882;SDS011;37739;50.350;7.578;2023-10-19T09:30:44;5.37;;;4.80;;
47882;SDS011;37739;50.350;7.578;2023-10-19T09:33:12;5.57;;;5.07;;
47882;SDS011;37739;50.350;7.578;2023-10-19T09:35:39;4.77;;;4.33;;
47882;SDS011;37739;50.350;7.578;2023-10-19T09:38:10;4.20;;;3.70;;
47882;SDS011;37739;50.350;7.578;2023-10-19T09:40:38;5.13;;;4.73;;
47882;SDS011;37739;50.350;7.578;2023-10-19T09:43:04;5.53;;;4.07;;
47882;SDS011;37739;50.350;7.578;2023-10-19T09:45:39;3.97;;;3.60;;
47882;SDS011;37739;50.350;7.578;2023-10-19T09:48:11;4.97;;;4.30;;
47882;SDS011;37739;50.350;7.578;2023-10-19T09:50:42;6.07;;;4.70;;
47882;SDS011;37739;50.350;7.578;2023-10-19T09:53:15;6.87;;;5.17;;
47882;SDS011;37739;50.350;7.578;2023-10-19T09:55:40;4.77;;;4.20;;
47882;SDS011;37739;50.350;7.578;2023-10-19T10:00:47;5.43;;;4.30;;
47882;SDS011;37739;50.350;7.578;2023-10-19T10:06:09;5.90;;;4.23;;
47882;SDS011;37739;50.350;7.578;2023-10-19T10:08:39;4.90;;;4.20;;
47882;SDS011;37739;50.350;7.578;2023-10-19T10:11:21;4.23;;;3.70;;
47882;SDS011;37739;50.350;7.578;2023-10-19T10:13:54;4.10;;;3.70;;
47882;SDS011;37739;50.350;7.578;2023-10-19T10:16:22;4.50;;;4.00;;
47882;SDS011;37739;50.350;7.578;2023-10-19T10:18:55;4.93;;;4.23;;
47882;SDS011;37739;50.350;7.578;2023-10-19T10:21:25;5.23;;;3.73;;
47882;SDS011;37739;50.350;7.578;2023-10-19T10:23:55;4.17;;;3.63;;
47882;SDS011;37739;50.350;7.578;2023-10-19T10:26:25;3.93;;;3.60;;
47882;SDS011;37739;50.350;7.578;2023-10-19T10:31:49;5.30;;;4.37;;
47882;SDS011;37739;50.350;7.578;2023-10-19T10:39:35;4.20;;;3.90;;
47882;SDS011;37739;50.350;7.578;2023-10-19T10:42:02;5.40;;;4.40;;
47882;SDS011;37739;50.350;7.578;2023-10-19T10:44:45;5.00;;;4.47;;
47882;SDS011;37739;50.350;7.578;2023-10-19T10:49:48;4.40;;;3.80;;
47882;SDS011;37739;50.350;7.578;2023-10-19T10:52:32;4.17;;;3.67;;
47882;SDS011;37739;50.350;7.578;2023-10-19T10:55:13;5.03;;;4.53;;
47882;SDS011;37739;50.350;7.578;2023-10-19T10:57:44;7.30;;;4.57;;
47882;SDS011;37739;50.350;7.578;2023-10-19T11:00:11;4.13;;;3.37;;
47882;SDS011;37739;50.350;7.578;2023-10-19T11:02:46;3.73;;;3.33;;
47882;SDS011;37739;50.350;7.578;2023-10-19T11:05:13;5.27;;;4.10;;
47882;SDS011;37739;50.350;7.578;2023-10-19T11:07:40;4.40;;;4.00;;
47882;SDS011;37739;50.350;7.578;2023-10-19T11:10:08;4.20;;;3.80;;
47882;SDS011;37739;50.350;7.578;2023-10-19T11:12:35;4.07;;;3.70;;
47882;SDS011;37739;50.350;7.578;2023-10-19T11:15:03;5.00;;;3.77;;
47882;SDS011;37739;50.350;7.578;2023-10-19T11:17:41;4.40;;;4.00;;
47882;SDS011;37739;50.350;7.578;2023-10-19T11:20:07;4.23;;;3.93;;
47882;SDS011;37739;50.350;7.578;2023-10-19T11:22:44;4.80;;;4.30;;
47882;SDS011;37739;50.350;7.578;2023-10-19T11:27:51;6.83;;;4.77;;
47882;SDS011;37739;50.350;7.578;2023-10-19T11:30:27;4.37;;;4.00;;
47882;SDS011;37739;50.350;7.578;2023-10-19T11:32:54;4.27;;;3.87;;
47882;SDS011;37739;50.350;7.578;2023-10-19T11:35:33;6.80;;;5.77;;
47882;SDS011;37739;50.350;7.578;2023-10-19T11:38:00;7.90;;;5.70;;
47882;SDS011;37739;50.350;7.578;2023-10-19T11:40:27;6.30;;;5.30;;
47882;SDS011;37739;50.350;7.578;2023-10-19T11:42:54;6.67;;;5.23;;
47882;SDS011;37739;50.350;7.578;2023-10-19T11:45:25;5.37;;;4.90;;
47882;SDS011;37739;50.350;7.578;2023-10-19T11:47:53;4.40;;;4.00;;
47882;SDS011;37739;50.350;7.578;2023-10-19T11:50:20;7.83;;;4.90;;
47882;SDS011;37739;50.350;7.578;2023-10-19T11:52:45;4.37;;;3.97;;
47882;SDS011;37739;50.350;7.578;2023-10-19T11:55:12;5.67;;;4.40;;
47882;SDS011;37739;50.350;7.578;2023-10-19T11:57:40;4.90;;;4.40;;
47882;SDS011;37739;50.350;7.578;2023-10-19T12:00:08;4.90;;;4.27;;
47882;SDS011;37739;50.350;7.578;2023-10-19T12:02:41;5.13;;;4.00;;
47882;SDS011;37739;50.350;7.578;2023-10-19T12:05:09;5.27;;;4.17;;
47882;SDS011;37739;50.350;7.578;2023-10-19T12:07:39;4.43;;;4.03;;
47882;SDS011;37739;50.350;7.578;2023-10-19T12:10:08;5.17;;;4.67;;
47882;SDS011;37739;50.350;7.578;2023-10-19T12:12:38;4.23;;;3.83;;
47882;SDS011;37739;50.350;7.578;2023-10-19T12:15:04;5.90;;;4.37;;
47882;SDS011;37739;50.350;7.578;2023-10-19T12:17:30;4.07;;;3.70;;
47882;SDS011;37739;50.350;7.578;2023-10-19T12:19:56;4.47;;;4.07;;
47882;SDS011;37739;50.350;7.578;2023-10-19T12:22:22;5.77;;;4.37;;
47882;SDS011;37739;50.350;7.578;2023-10-19T12:24:53;5.00;;;4.37;;
47882;SDS011;37739;50.350;7.578;2023-10-19T12:27:23;4.80;;;4.40;;
47882;SDS011;37739;50.350;7.578;2023-10-19T12:29:51;5.10;;;4.70;;
47882;SDS011;37739;50.350;7.578;2023-10-19T12:32:24;5.03;;;4.03;;
47882;SDS011;37739;50.350;7.578;2023-10-19T12:34:50;5.37;;;4.90;;
47882;SDS011;37739;50.350;7.578;2023-10-19T12:37:22;7.37;;;4.17;;
47882;SDS011;37739;50.350;7.578;2023-10-19T12:39:49;6.90;;;4.80;;
47882;SDS011;37739;50.350;7.578;2023-10-19T12:42:15;5.70;;;5.10;;
47882;SDS011;37739;50.350;7.578;2023-10-19T12:44:40;4.93;;;4.43;;
47882;SDS011;37739;50.350;7.578;2023-10-19T12:47:08;6.20;;;4.57;;
47882;SDS011;37739;50.350;7.578;2023-10-19T12:49:39;4.53;;;4.07;;
47882;SDS011;37739;50.350;7.578;2023-10-19T12:52:10;4.83;;;4.43;;
47882;SDS011;37739;50.350;7.578;2023-10-19T12:54:36;4.03;;;3.73;;
47882;SDS011;37739;50.350;7.578;2023-10-19T12:57:03;4.93;;;4.50;;
47882;SDS011;37739;50.350;7.578;2023-10-19T12:59:34;4.60;;;4.20;;
47882;SDS011;37739;50.350;7.578;2023-10-19T13:02:04;3.93;;;3.60;;
47882;SDS011;37739;50.350;7.578;2023-10-19T13:04:35;4.17;;;3.80;;
47882;SDS011;37739;50.350;7.578;2023-10-19T13:07:03;5.43;;;3.77;;
47882;SDS011;37739;50.350;7.578;2023-10-19T13:09:34;3.67;;;3.37;;
47882;SDS011;37739;50.350;7.578;2023-10-19T13:12:03;4.50;;;3.30;;
47882;SDS011;37739;50.350;7.578;2023-10-19T13:14:35;4.00;;;3.70;;
47882;SDS011;37739;50.350;7.578;2023-10-19T13:17:04;4.00;;;3.27;;
47882;SDS011;37739;50.350;7.578;2023-10-19T13:19:29;3.97;;;3.57;;
47882;SDS011;37739;50.350;7.578;2023-10-19T13:21:54;4.37;;;3.97;;
47882;SDS011;37739;50.350;7.578;2023-10-19T13:24:23;4.47;;;3.67;;
47882;SDS011;37739;50.350;7.578;2023-10-19T13:26:50;4.50;;;3.67;;
47882;SDS011;37739;50.350;7.578;2023-10-19T13:29:18;4.30;;;3.90;;
47882;SDS011;37739;50.350;7.578;2023-10-19T13:31:45;4.60;;;4.20;;
47882;SDS011;37739;50.350;7.578;2023-10-19T13:34:14;4.00;;;3.63;;
47882;SDS011;37739;50.350;7.578;2023-10-19T13:36:42;3.93;;;3.37;;
47882;SDS011;37739;50.350;7.578;2023-10-19T13:39:09;4.27;;;3.87;;
47882;SDS011;37739;50.350;7.578;2023-10-19T13:41:43;3.30;;;3.00;;
47882;SDS011;37739;50.350;7.578;2023-10-19T13:44:09;3.57;;;3.27;;
47882;SDS011;37739;50.350;7.578;2023-10-19T13:46:36;4.43;;;4.03;;
47882;SDS011;37739;50.350;7.578;2023-10-19T13:49:02;4.70;;;4.20;;
47882;SDS011;37739;50.350;7.578;2023-10-19T13:51:30;4.00;;;3.70;;
47882;SDS011;37739;50.350;7.578;2023-10-19T13:53:56;5.53;;;3.80;;
47882;SDS011;37739;50.350;7.578;2023-10-19T13:56:25;4.60;;;3.73;;
47882;SDS011;37739;50.350;7.578;2023-10-19T13:58:51;4.07;;;3.77;;
47882;SDS011;37739;50.350;7.578;2023-10-19T14:01:19;4.40;;;4.00;;
47882;SDS011;37739;50.350;7.578;2023-10-19T14:03:48;3.77;;;3.47;;
47882;SDS011;37739;50.350;7.578;2023-10-19T14:06:16;4.83;;;4.17;;
47882;SDS011;37739;50.350;7.578;2023-10-19T14:08:44;4.40;;;3.67;;
47882;SDS011;37739;50.350;7.578;2023-10-19T14:11:10;5.50;;;3.83;;
47882;SDS011;37739;50.350;7.578;2023-10-19T14:13:36;5.80;;;4.00;;
47882;SDS011;37739;50.350;7.578;2023-10-19T14:16:04;4.70;;;4.30;;
47882;SDS011;37739;50.350;7.578;2023-10-19T14:18:33;4.20;;;3.63;;
47882;SDS011;37739;50.350;7.578;2023-10-19T14:20:59;5.20;;;4.70;;
47882;SDS011;37739;50.350;7.578;2023-10-19T14:23:25;4.80;;;4.40;;
47882;SDS011;37739;50.350;7.578;2023-10-19T14:25:52;5.47;;;4.90;;
47882;SDS011;37739;50.350;7.578;2023-10-19T14:28:22;4.83;;;4.40;;
47882;SDS011;37739;50.350;7.578;2023-10-19T14:30:47;4.30;;;3.90;;
47882;SDS011;37739;50.350;7.578;2023-10-19T14:33:14;5.40;;;4.20;;
47882;SDS011;37739;50.350;7.578;2023-10-19T14:35:40;5.80;;;4.47;;
47882;SDS011;37739;50.350;7.578;2023-10-19T14:38:06;4.40;;;4.00;;
47882;SDS011;37739;50.350;7.578;2023-10-19T14:40:34;5.40;;;4.90;;
47882;SDS011;37739;50.350;7.578;2023-10-19T14:43:00;4.30;;;3.90;;
47882;SDS011;37739;50.350;7.578;2023-10-19T14:45:28;4.33;;;3.93;;
47882;SDS011;37739;50.350;7.578;2023-10-19T14:47:54;5.77;;;5.20;;
47882;SDS011;37739;50.350;7.578;2023-10-19T14:50:21;6.13;;;4.30;;
47882;SDS011;37739;50.350;7.578;2023-10-19T14:52:48;4.83;;;4.43;;
47882;SDS011;37739;50.350;7.578;2023-10-19T14:55:20;5.00;;;4.50;;
47882;SDS011;37739;50.350;7.578;2023-10-19T14:57:49;5.17;;;3.67;;
47882;SDS011;37739;50.350;7.578;2023-10-19T15:00:18;6.17;;;4.63;;
47882;SDS011;37739;50.350;7.578;2023-10-19T15:02:47;4.87;;;4.47;;
47882;SDS011;37739;50.350;7.578;2023-10-19T15:05:15;4.73;;;4.30;;
47882;SDS011;37739;50.350;7.578;2023-10-19T15:07:42;4.20;;;3.80;;
47882;SDS011;37739;50.350;7.578;2023-10-19T15:10:12;4.73;;;4.33;;
47882;SDS011;37739;50.350;7.578;2023-10-19T15:12:40;4.83;;;4.00;;
47882;SDS011;37739;50.350;7.578;2023-10-19T15:15:06;4.10;;;3.53;;
47882;SDS011;37739;50.350;7.578;2023-10-19T15:17:42;4.10;;;3.80;;